sensor_id;sensor_type;location;lat;lon;timestamp;P1;durP1;ratioP1;P2;durP2;ratioP2
51654;SDS011;37732;53.106;7.030;2023-04-03T00:01:07;3.28;;;1.30;;
51654;SDS011;37732;53.106;7.030;2023-04-03T00:03:33;3.53;;;1.80;;
51654;SDS011;37732;53.106;7.030;2023-04-03T00:06:00;3.42;;;1.38;;
51654;SDS011;37732;53.106;7.030;2023-04-03T00:08:26;3.97;;;1.20;;
51654;SDS011;37732;53.106;7.030;2023-04-03T00:10:52;3.10;;;1.23;;
51654;SDS011;37732;53.106;7.030;2023-04-03T00:13:17;4.70;;;1.65;;
51654;SDS011;37732;53.106;7.030;2023-04-03T00:15:44;3.55;;;1.65;;
51654;SDS011;37732;53.106;7.030;2023-04-03T00:18:10;4.53;;;1.77;;
51654;SDS011;37732;53.106;7.030;2023-04-03T00:20:36;4.57;;;1.77;;
51654;SDS011;37732;53.106;7.030;2023-04-03T00:23:02;5.00;;;1.90;;
51654;SDS011;37732;53.106;7.030;2023-04-03T00:25:27;7.20;;;1.77;;
51654;SDS011;37732;53.106;7.030;2023-04-03T00:27:53;6.25;;;2.60;;
51654;SDS011;37732;53.106;7.030;2023-04-03T00:30:20;4.38;;;1.80;;
51654;SDS011;37732;53.106;7.030;2023-04-03T00:32:50;3.80;;;1.85;;
51654;SDS011;37732;53.106;7.030;2023-04-03T00:35:16;5.00;;;1.77;;
51654;SDS011;37732;53.106;7.030;2023-04-03T00:37:43;3.72;;;1.70;;
51654;SDS011;37732;53.106;7.030;2023-04-03T00:40:10;5.22;;;1.80;;
51654;SDS011;37732;53.106;7.030;2023-04-03T00:42:39;4.50;;;1.63;;
51654;SDS011;37732;53.106;7.030;2023-04-03T00:47:40;4.00;;;1.65;;
51654;SDS011;37732;53.106;7.030;2023-04-03T00:50:07;6.07;;;1.83;;
51654;SDS011;37732;53.106;7.030;2023-04-03T00:52:33;4.10;;;1.58;;
51654;SDS011;37732;53.106;7.030;2023-04-03T00:55:00;2.80;;;1.50;;
51654;SDS011;37732;53.106;7.030;2023-04-03T00:57:30;4.88;;;1.63;;
51654;SDS011;37732;53.106;7.030;2023-04-03T01:00:00;6.05;;;2.17;;
51654;SDS011;37732;53.106;7.030;2023-04-03T01:02:31;5.55;;;1.80;;
51654;SDS011;37732;53.106;7.030;2023-04-03T01:04:56;4.68;;;2.08;;
51654;SDS011;37732;53.106;7.030;2023-04-03T01:07:23;3.70;;;1.70;;
51654;SDS011;37732;53.106;7.030;2023-04-03T01:09:55;6.78;;;1.95;;
51654;SDS011;37732;53.106;7.030;2023-04-03T01:12:28;4.68;;;1.92;;
51654;SDS011;37732;53.106;7.030;2023-04-03T01:15:06;5.88;;;1.92;;
51654;SDS011;37732;53.106;7.030;2023-04-03T01:17:45;3.83;;;1.77;;
51654;SDS011;37732;53.106;7.030;2023-04-03T01:28:14;4.30;;;2.03;;
51654;SDS011;37732;53.106;7.030;2023-04-03T01:33:38;3.55;;;1.80;;
51654;SDS011;37732;53.106;7.030;2023-04-03T01:36:04;4.65;;;2.00;;
51654;SDS011;37732;53.106;7.030;2023-04-03T01:38:31;5.90;;;2.13;;
51654;SDS011;37732;53.106;7.030;2023-04-03T01:40:56;6.90;;;2.75;;
51654;SDS011;37732;53.106;7.030;2023-04-03T01:43:22;5.80;;;2.00;;
51654;SDS011;37732;53.106;7.030;2023-04-03T01:45:48;5.03;;;2.00;;
51654;SDS011;37732;53.106;7.030;2023-04-03T01:48:19;3.50;;;1.83;;
51654;SDS011;37732;53.106;7.030;2023-04-03T01:50:45;4.25;;;2.00;;
51654;SDS011;37732;53.106;7.030;2023-04-03T01:53:11;6.53;;;2.53;;
51654;SDS011;37732;53.106;7.030;2023-04-03T01:55:37;4.93;;;1.92;;
51654;SDS011;37732;53.106;7.030;2023-04-03T01:58:02;3.45;;;1.80;;
51654;SDS011;37732;53.106;7.030;2023-04-03T02:00:28;6.60;;;2.20;;
51654;SDS011;37732;53.106;7.030;2023-04-03T02:02:54;2.85;;;1.85;;
51654;SDS011;37732;53.106;7.030;2023-04-03T02:05:20;4.53;;;1.73;;
51654;SDS011;37732;53.106;7.030;2023-04-03T02:07:46;4.53;;;1.98;;
51654;SDS011;37732;53.106;7.030;2023-04-03T02:10:12;3.97;;;1.77;;
51654;SDS011;37732;53.106;7.030;2023-04-03T02:12:37;4.53;;;2.13;;
51654;SDS011;37732;53.106;7.030;2023-04-03T02:15:03;4.72;;;2.00;;
51654;SDS011;37732;53.106;7.030;2023-04-03T02:17:30;4.18;;;2.00;;
51654;SDS011;37732;53.106;7.030;2023-04-03T02:19:55;6.55;;;2.10;;
51654;SDS011;37732;53.106;7.030;2023-04-03T02:22:21;4.55;;;2.25;;
51654;SDS011;37732;53.106;7.030;2023-04-03T02:24:47;4.35;;;2.08;;
51654;SDS011;37732;53.106;7.030;2023-04-03T02:27:12;4.15;;;1.83;;
51654;SDS011;37732;53.106;7.030;2023-04-03T02:29:38;4.88;;;2.30;;
51654;SDS011;37732;53.106;7.030;2023-04-03T02:32:04;7.00;;;2.35;;
51654;SDS011;37732;53.106;7.030;2023-04-03T02:34:31;6.35;;;2.50;;
51654;SDS011;37732;53.106;7.030;2023-04-03T02:36:57;6.57;;;2.33;;
51654;SDS011;37732;53.106;7.030;2023-04-03T02:39:23;5.68;;;2.47;;
51654;SDS011;37732;53.106;7.030;2023-04-03T02:41:48;7.47;;;3.03;;
51654;SDS011;37732;53.106;7.030;2023-04-03T02:44:14;4.85;;;2.17;;
51654;SDS011;37732;53.106;7.030;2023-04-03T02:46:40;4.68;;;2.20;;
51654;SDS011;37732;53.106;7.030;2023-04-03T02:49:06;4.38;;;1.90;;
51654;SDS011;37732;53.106;7.030;2023-04-03T02:51:31;3.55;;;2.20;;
51654;SDS011;37732;53.106;7.030;2023-04-03T02:53:57;5.20;;;2.35;;
51654;SDS011;37732;53.106;7.030;2023-04-03T02:56:23;7.80;;;2.33;;
51654;SDS011;37732;53.106;7.030;2023-04-03T02:58:49;5.57;;;2.30;;
51654;SDS011;37732;53.106;7.030;2023-04-03T03:01:15;5.43;;;2.30;;
51654;SDS011;37732;53.106;7.030;2023-04-03T03:03:40;9.57;;;2.40;;
51654;SDS011;37732;53.106;7.030;2023-04-03T03:06:07;4.80;;;2.60;;
51654;SDS011;37732;53.106;7.030;2023-04-03T03:08:37;8.10;;;2.42;;
51654;SDS011;37732;53.106;7.030;2023-04-03T03:11:03;5.50;;;2.30;;
51654;SDS011;37732;53.106;7.030;2023-04-03T03:13:29;5.07;;;2.50;;
51654;SDS011;37732;53.106;7.030;2023-04-03T03:15:55;4.53;;;2.17;;
51654;SDS011;37732;53.106;7.030;2023-04-03T03:18:21;6.95;;;2.33;;
51654;SDS011;37732;53.106;7.030;2023-04-03T03:20:50;5.30;;;2.50;;
51654;SDS011;37732;53.106;7.030;2023-04-03T03:25:46;6.18;;;2.53;;
51654;SDS011;37732;53.106;7.030;2023-04-03T03:28:12;5.43;;;2.85;;
51654;SDS011;37732;53.106;7.030;2023-04-03T03:30:37;6.55;;;2.75;;
51654;SDS011;37732;53.106;7.030;2023-04-03T03:33:03;6.32;;;2.40;;
51654;SDS011;37732;53.106;7.030;2023-04-03T03:35:29;6.20;;;2.28;;
51654;SDS011;37732;53.106;7.030;2023-04-03T03:37:55;4.22;;;2.60;;
51654;SDS011;37732;53.106;7.030;2023-04-03T03:40:20;7.07;;;2.80;;
51654;SDS011;37732;53.106;7.030;2023-04-03T03:42:46;6.20;;;2.65;;
51654;SDS011;37732;53.106;7.030;2023-04-03T03:45:12;7.40;;;2.95;;
51654;SDS011;37732;53.106;7.030;2023-04-03T03:47:37;7.00;;;2.88;;
51654;SDS011;37732;53.106;7.030;2023-04-03T03:50:03;7.32;;;2.28;;
51654;SDS011;37732;53.106;7.030;2023-04-03T03:52:30;5.82;;;2.72;;
51654;SDS011;37732;53.106;7.030;2023-04-03T03:54:56;5.53;;;2.88;;
51654;SDS011;37732;53.106;7.030;2023-04-03T03:57:21;8.02;;;3.58;;
51654;SDS011;37732;53.106;7.030;2023-04-03T03:59:47;6.15;;;2.55;;
51654;SDS011;37732;53.106;7.030;2023-04-03T04:02:13;6.28;;;2.55;;
51654;SDS011;37732;53.106;7.030;2023-04-03T04:04:39;6.57;;;3.20;;
51654;SDS011;37732;53.106;7.030;2023-04-03T04:07:05;7.07;;;2.65;;
51654;SDS011;37732;53.106;7.030;2023-04-03T04:09:31;6.82;;;3.03;;
51654;SDS011;37732;53.106;7.030;2023-04-03T04:11:57;6.30;;;3.45;;
51654;SDS011;37732;53.106;7.030;2023-04-03T04:14:23;7.40;;;2.80;;
51654;SDS011;37732;53.106;7.030;2023-04-03T04:16:48;7.45;;;3.13;;
51654;SDS011;37732;53.106;7.030;2023-04-03T04:19:14;8.63;;;3.92;;
51654;SDS011;37732;53.106;7.030;2023-04-03T04:21:40;4.82;;;2.63;;
51654;SDS011;37732;53.106;7.030;2023-04-03T04:24:07;7.68;;;3.00;;
51654;SDS011;37732;53.106;7.030;2023-04-03T04:26:33;6.53;;;3.30;;
51654;SDS011;37732;53.106;7.030;2023-04-03T04:28:59;6.55;;;3.25;;
51654;SDS011;37732;53.106;7.030;2023-04-03T04:31:25;7.95;;;2.28;;
51654;SDS011;37732;53.106;7.030;2023-04-03T04:33:51;8.77;;;2.90;;
51654;SDS011;37732;53.106;7.030;2023-04-03T04:36:17;11.43;;;3.67;;
51654;SDS011;37732;53.106;7.030;2023-04-03T04:38:43;7.95;;;3.10;;
51654;SDS011;37732;53.106;7.030;2023-04-03T04:41:09;7.63;;;3.42;;
51654;SDS011;37732;53.106;7.030;2023-04-03T04:43:35;8.43;;;3.67;;
51654;SDS011;37732;53.106;7.030;2023-04-03T04:46:05;7.32;;;3.00;;
51654;SDS011;37732;53.106;7.030;2023-04-03T04:48:32;5.90;;;3.20;;
51654;SDS011;37732;53.106;7.030;2023-04-03T04:50:59;9.68;;;4.15;;
51654;SDS011;37732;53.106;7.030;2023-04-03T04:53:25;8.52;;;3.58;;
51654;SDS011;37732;53.106;7.030;2023-04-03T04:55:51;9.82;;;3.83;;
51654;SDS011;37732;53.106;7.030;2023-04-03T04:58:17;6.97;;;3.80;;
51654;SDS011;37732;53.106;7.030;2023-04-03T05:00:43;7.97;;;3.13;;
51654;SDS011;37732;53.106;7.030;2023-04-03T05:03:09;7.40;;;3.42;;
51654;SDS011;37732;53.106;7.030;2023-04-03T05:05:35;11.05;;;3.75;;
51654;SDS011;37732;53.106;7.030;2023-04-03T05:08:01;6.40;;;3.42;;
51654;SDS011;37732;53.106;7.030;2023-04-03T05:10:28;7.95;;;3.78;;
51654;SDS011;37732;53.106;7.030;2023-04-03T05:12:54;11.43;;;3.63;;
51654;SDS011;37732;53.106;7.030;2023-04-03T05:15:20;8.60;;;3.67;;
51654;SDS011;37732;53.106;7.030;2023-04-03T05:17:45;6.80;;;3.38;;
51654;SDS011;37732;53.106;7.030;2023-04-03T05:20:11;7.95;;;3.53;;
51654;SDS011;37732;53.106;7.030;2023-04-03T05:22:37;9.38;;;3.55;;
51654;SDS011;37732;53.106;7.030;2023-04-03T05:25:03;7.25;;;4.10;;
51654;SDS011;37732;53.106;7.030;2023-04-03T05:27:30;7.43;;;5.22;;
51654;SDS011;37732;53.106;7.030;2023-04-03T05:29:56;7.78;;;4.05;;
51654;SDS011;37732;53.106;7.030;2023-04-03T05:32:23;9.30;;;3.72;;
51654;SDS011;37732;53.106;7.030;2023-04-03T05:34:50;8.50;;;3.95;;
51654;SDS011;37732;53.106;7.030;2023-04-03T05:37:15;10.02;;;3.83;;
51654;SDS011;37732;53.106;7.030;2023-04-03T05:39:41;7.07;;;2.28;;
51654;SDS011;37732;53.106;7.030;2023-04-03T05:42:07;8.30;;;3.78;;
51654;SDS011;37732;53.106;7.030;2023-04-03T05:44:33;7.85;;;3.78;;
51654;SDS011;37732;53.106;7.030;2023-04-03T05:46:59;7.75;;;3.67;;
51654;SDS011;37732;53.106;7.030;2023-04-03T05:49:25;8.43;;;3.70;;
51654;SDS011;37732;53.106;7.030;2023-04-03T05:51:50;10.30;;;3.22;;
51654;SDS011;37732;53.106;7.030;2023-04-03T05:54:20;7.10;;;3.60;;
51654;SDS011;37732;53.106;7.030;2023-04-03T05:56:49;6.03;;;3.15;;
51654;SDS011;37732;53.106;7.030;2023-04-03T05:59:16;7.70;;;3.50;;
51654;SDS011;37732;53.106;7.030;2023-04-03T06:01:42;9.50;;;4.50;;
51654;SDS011;37732;53.106;7.030;2023-04-03T06:04:08;10.75;;;4.40;;
51654;SDS011;37732;53.106;7.030;2023-04-03T06:09:17;7.85;;;3.70;;
51654;SDS011;37732;53.106;7.030;2023-04-03T06:11:43;10.77;;;4.53;;
51654;SDS011;37732;53.106;7.030;2023-04-03T06:14:09;8.68;;;3.78;;
51654;SDS011;37732;53.106;7.030;2023-04-03T06:16:35;7.68;;;4.13;;
51654;SDS011;37732;53.106;7.030;2023-04-03T06:19:02;12.27;;;4.80;;
51654;SDS011;37732;53.106;7.030;2023-04-03T06:21:30;8.65;;;4.07;;
51654;SDS011;37732;53.106;7.030;2023-04-03T06:23:55;9.82;;;3.83;;
51654;SDS011;37732;53.106;7.030;2023-04-03T06:26:21;7.05;;;3.70;;
51654;SDS011;37732;53.106;7.030;2023-04-03T06:28:47;7.03;;;4.10;;
51654;SDS011;37732;53.106;7.030;2023-04-03T06:31:13;8.65;;;3.97;;
51654;SDS011;37732;53.106;7.030;2023-04-03T06:33:38;8.50;;;3.97;;
51654;SDS011;37732;53.106;7.030;2023-04-03T06:36:04;11.18;;;4.60;;
51654;SDS011;37732;53.106;7.030;2023-04-03T06:38:32;7.60;;;3.78;;
51654;SDS011;37732;53.106;7.030;2023-04-03T06:40:58;8.15;;;3.83;;
51654;SDS011;37732;53.106;7.030;2023-04-03T06:43:25;9.43;;;4.18;;
51654;SDS011;37732;53.106;7.030;2023-04-03T06:45:51;8.95;;;3.83;;
51654;SDS011;37732;53.106;7.030;2023-04-03T06:48:17;9.63;;;4.10;;
51654;SDS011;37732;53.106;7.030;2023-04-03T06:50:43;9.15;;;4.15;;
51654;SDS011;37732;53.106;7.030;2023-04-03T06:53:09;8.73;;;4.05;;
51654;SDS011;37732;53.106;7.030;2023-04-03T06:55:35;7.30;;;3.47;;
51654;SDS011;37732;53.106;7.030;2023-04-03T06:58:01;8.80;;;3.90;;
51654;SDS011;37732;53.106;7.030;2023-04-03T07:00:28;7.03;;;4.18;;
51654;SDS011;37732;53.106;7.030;2023-04-03T07:02:55;7.18;;;3.42;;
51654;SDS011;37732;53.106;7.030;2023-04-03T07:05:22;7.35;;;3.58;;
51654;SDS011;37732;53.106;7.030;2023-04-03T07:07:48;7.57;;;3.50;;
51654;SDS011;37732;53.106;7.030;2023-04-03T07:10:15;8.95;;;3.92;;
51654;SDS011;37732;53.106;7.030;2023-04-03T07:12:41;7.13;;;3.65;;
51654;SDS011;37732;53.106;7.030;2023-04-03T07:15:08;7.13;;;3.45;;
51654;SDS011;37732;53.106;7.030;2023-04-03T07:17:36;8.40;;;4.00;;
51654;SDS011;37732;53.106;7.030;2023-04-03T07:20:02;8.93;;;4.43;;
51654;SDS011;37732;53.106;7.030;2023-04-03T07:22:29;7.40;;;3.88;;
51654;SDS011;37732;53.106;7.030;2023-04-03T07:24:55;7.45;;;3.78;;
51654;SDS011;37732;53.106;7.030;2023-04-03T07:27:20;6.68;;;3.00;;
51654;SDS011;37732;53.106;7.030;2023-04-03T07:29:46;8.20;;;3.38;;
51654;SDS011;37732;53.106;7.030;2023-04-03T07:32:13;7.10;;;3.63;;
51654;SDS011;37732;53.106;7.030;2023-04-03T07:34:40;10.05;;;3.42;;
51654;SDS011;37732;53.106;7.030;2023-04-03T07:37:06;5.95;;;2.63;;
51654;SDS011;37732;53.106;7.030;2023-04-03T07:39:34;7.72;;;3.50;;
51654;SDS011;37732;53.106;7.030;2023-04-03T07:42:00;6.68;;;3.38;;
51654;SDS011;37732;53.106;7.030;2023-04-03T07:44:27;8.23;;;3.47;;
51654;SDS011;37732;53.106;7.030;2023-04-03T07:46:53;10.55;;;3.20;;
51654;SDS011;37732;53.106;7.030;2023-04-03T07:49:22;8.98;;;3.83;;
51654;SDS011;37732;53.106;7.030;2023-04-03T07:51:49;8.25;;;3.50;;
51654;SDS011;37732;53.106;7.030;2023-04-03T07:54:15;6.07;;;2.70;;
51654;SDS011;37732;53.106;7.030;2023-04-03T07:56:41;6.00;;;2.70;;
51654;SDS011;37732;53.106;7.030;2023-04-03T07:59:08;6.13;;;2.60;;
51654;SDS011;37732;53.106;7.030;2023-04-03T08:01:35;5.50;;;2.28;;
51654;SDS011;37732;53.106;7.030;2023-04-03T08:04:01;6.93;;;2.97;;
51654;SDS011;37732;53.106;7.030;2023-04-03T08:06:27;6.85;;;2.85;;
51654;SDS011;37732;53.106;7.030;2023-04-03T08:08:54;7.25;;;3.20;;
51654;SDS011;37732;53.106;7.030;2023-04-03T08:11:21;5.90;;;2.55;;
51654;SDS011;37732;53.106;7.030;2023-04-03T08:13:48;8.63;;;3.17;;
51654;SDS011;37732;53.106;7.030;2023-04-03T08:16:18;5.85;;;2.97;;
51654;SDS011;37732;53.106;7.030;2023-04-03T08:18:46;6.65;;;2.60;;
51654;SDS011;37732;53.106;7.030;2023-04-03T08:21:12;5.75;;;2.33;;
51654;SDS011;37732;53.106;7.030;2023-04-03T08:23:39;6.93;;;2.75;;
51654;SDS011;37732;53.106;7.030;2023-04-03T08:26:07;6.90;;;2.78;;
51654;SDS011;37732;53.106;7.030;2023-04-03T08:28:37;5.43;;;2.72;;
51654;SDS011;37732;53.106;7.030;2023-04-03T08:31:04;6.10;;;2.35;;
51654;SDS011;37732;53.106;7.030;2023-04-03T08:33:31;4.85;;;2.03;;
51654;SDS011;37732;53.106;7.030;2023-04-03T08:35:57;5.97;;;2.25;;
51654;SDS011;37732;53.106;7.030;2023-04-03T08:38:23;4.13;;;2.22;;
51654;SDS011;37732;53.106;7.030;2023-04-03T08:40:59;6.13;;;2.78;;
51654;SDS011;37732;53.106;7.030;2023-04-03T08:46:02;5.93;;;2.00;;
51654;SDS011;37732;53.106;7.030;2023-04-03T08:48:32;4.97;;;2.25;;
51654;SDS011;37732;53.106;7.030;2023-04-03T08:51:04;6.03;;;2.28;;
51654;SDS011;37732;53.106;7.030;2023-04-03T08:56:25;5.03;;;2.38;;
51654;SDS011;37732;53.106;7.030;2023-04-03T08:58:59;5.50;;;2.40;;
51654;SDS011;37732;53.106;7.030;2023-04-03T09:04:14;4.82;;;2.00;;
51654;SDS011;37732;53.106;7.030;2023-04-03T09:06:45;4.38;;;1.75;;
51654;SDS011;37732;53.106;7.030;2023-04-03T09:22:27;9.35;;;1.90;;
51654;SDS011;37732;53.106;7.030;2023-04-03T09:25:16;4.88;;;1.90;;
51654;SDS011;37732;53.106;7.030;2023-04-03T09:27:40;4.20;;;2.00;;
51654;SDS011;37732;53.106;7.030;2023-04-03T09:30:11;5.07;;;2.30;;
51654;SDS011;37732;53.106;7.030;2023-04-03T09:32:43;3.67;;;1.77;;
51654;SDS011;37732;53.106;7.030;2023-04-03T09:37:40;6.22;;;1.55;;
51654;SDS011;37732;53.106;7.030;2023-04-03T09:42:54;8.35;;;4.90;;
51654;SDS011;37732;53.106;7.030;2023-04-03T09:55:56;4.70;;;2.13;;
51654;SDS011;37732;53.106;7.030;2023-04-03T09:58:24;3.45;;;1.70;;
51654;SDS011;37732;53.106;7.030;2023-04-03T10:01:00;5.47;;;1.65;;
51654;SDS011;37732;53.106;7.030;2023-04-03T10:05:53;3.70;;;1.60;;
51654;SDS011;37732;53.106;7.030;2023-04-03T10:08:23;3.00;;;1.33;;
51654;SDS011;37732;53.106;7.030;2023-04-03T10:11:05;3.78;;;1.58;;
51654;SDS011;37732;53.106;7.030;2023-04-03T10:13:32;5.47;;;1.80;;
51654;SDS011;37732;53.106;7.030;2023-04-03T10:18:42;3.83;;;1.70;;
51654;SDS011;37732;53.106;7.030;2023-04-03T10:23:51;4.55;;;1.45;;
51654;SDS011;37732;53.106;7.030;2023-04-03T10:26:45;3.28;;;1.38;;
51654;SDS011;37732;53.106;7.030;2023-04-03T10:29:26;7.85;;;2.33;;
51654;SDS011;37732;53.106;7.030;2023-04-03T10:34:55;3.05;;;1.25;;
51654;SDS011;37732;53.106;7.030;2023-04-03T11:02:11;5.85;;;1.33;;
51654;SDS011;37732;53.106;7.030;2023-04-03T11:04:48;3.50;;;1.40;;
51654;SDS011;37732;53.106;7.030;2023-04-03T11:07:20;2.60;;;1.27;;
51654;SDS011;37732;53.106;7.030;2023-04-03T11:09:55;2.67;;;1.13;;
51654;SDS011;37732;53.106;7.030;2023-04-03T11:14:58;3.60;;;1.50;;
51654;SDS011;37732;53.106;7.030;2023-04-03T11:17:28;4.72;;;1.38;;
51654;SDS011;37732;53.106;7.030;2023-04-03T11:20:03;3.17;;;1.55;;
51654;SDS011;37732;53.106;7.030;2023-04-03T11:22:41;3.60;;;1.40;;
51654;SDS011;37732;53.106;7.030;2023-04-03T11:35:47;3.20;;;1.38;;
51654;SDS011;37732;53.106;7.030;2023-04-03T11:38:21;3.30;;;1.48;;
51654;SDS011;37732;53.106;7.030;2023-04-03T11:40:56;4.40;;;1.42;;
51654;SDS011;37732;53.106;7.030;2023-04-03T11:43:27;4.30;;;1.90;;
51654;SDS011;37732;53.106;7.030;2023-04-03T11:45:59;4.50;;;1.83;;
51654;SDS011;37732;53.106;7.030;2023-04-03T11:50:55;6.25;;;1.50;;
51654;SDS011;37732;53.106;7.030;2023-04-03T11:53:26;3.03;;;1.48;;
51654;SDS011;37732;53.106;7.030;2023-04-03T12:01:44;3.63;;;1.70;;
51654;SDS011;37732;53.106;7.030;2023-04-03T12:09:28;5.43;;;1.90;;
51654;SDS011;37732;53.106;7.030;2023-04-03T12:11:56;5.82;;;2.10;;
51654;SDS011;37732;53.106;7.030;2023-04-03T12:14:24;3.85;;;1.42;;
51654;SDS011;37732;53.106;7.030;2023-04-03T12:16:55;3.65;;;1.60;;
51654;SDS011;37732;53.106;7.030;2023-04-03T12:22:12;4.97;;;2.03;;
51654;SDS011;37732;53.106;7.030;2023-04-03T12:24:41;5.80;;;1.85;;
51654;SDS011;37732;53.106;7.030;2023-04-03T12:35:10;3.53;;;1.25;;
51654;SDS011;37732;53.106;7.030;2023-04-03T12:47:16;2.88;;;1.40;;
51654;SDS011;37732;53.106;7.030;2023-04-03T12:49:49;2.70;;;1.42;;
51654;SDS011;37732;53.106;7.030;2023-04-03T12:52:28;4.05;;;1.83;;
51654;SDS011;37732;53.106;7.030;2023-04-03T12:55:14;4.87;;;1.80;;
51654;SDS011;37732;53.106;7.030;2023-04-03T12:57:41;3.67;;;1.60;;
51654;SDS011;37732;53.106;7.030;2023-04-03T13:02:59;3.63;;;1.42;;
51654;SDS011;37732;53.106;7.030;2023-04-03T13:05:26;2.75;;;1.15;;
51654;SDS011;37732;53.106;7.030;2023-04-03T13:07:58;3.30;;;1.50;;
51654;SDS011;37732;53.106;7.030;2023-04-03T13:10:30;2.58;;;1.30;;
51654;SDS011;37732;53.106;7.030;2023-04-03T13:12:58;2.53;;;1.20;;
51654;SDS011;37732;53.106;7.030;2023-04-03T13:15:40;4.78;;;1.70;;
51654;SDS011;37732;53.106;7.030;2023-04-03T13:20:51;2.60;;;1.17;;
51654;SDS011;37732;53.106;7.030;2023-04-03T13:23:17;3.17;;;1.08;;
51654;SDS011;37732;53.106;7.030;2023-04-03T13:25:45;3.15;;;1.30;;
51654;SDS011;37732;53.106;7.030;2023-04-03T13:28:13;3.78;;;1.30;;
51654;SDS011;37732;53.106;7.030;2023-04-03T13:30:59;4.05;;;1.60;;
51654;SDS011;37732;53.106;7.030;2023-04-03T13:33:33;3.22;;;1.40;;
51654;SDS011;37732;53.106;7.030;2023-04-03T13:36:29;2.10;;;1.10;;
51654;SDS011;37732;53.106;7.030;2023-04-03T13:38:58;2.47;;;1.00;;
51654;SDS011;37732;53.106;7.030;2023-04-03T13:41:47;2.22;;;1.23;;
51654;SDS011;37732;53.106;7.030;2023-04-03T13:46:47;4.82;;;1.77;;
51654;SDS011;37732;53.106;7.030;2023-04-03T13:52:03;3.58;;;1.58;;
51654;SDS011;37732;53.106;7.030;2023-04-03T13:54:51;2.28;;;1.30;;
51654;SDS011;37732;53.106;7.030;2023-04-03T13:57:20;1.70;;;1.23;;
51654;SDS011;37732;53.106;7.030;2023-04-03T13:59:46;3.92;;;1.40;;
51654;SDS011;37732;53.106;7.030;2023-04-03T14:02:14;2.85;;;1.42;;
51654;SDS011;37732;53.106;7.030;2023-04-03T14:07:11;2.47;;;1.23;;
51654;SDS011;37732;53.106;7.030;2023-04-03T14:09:39;4.00;;;1.38;;
51654;SDS011;37732;53.106;7.030;2023-04-03T14:12:06;3.35;;;1.55;;
51654;SDS011;37732;53.106;7.030;2023-04-03T14:14:37;2.95;;;1.48;;
51654;SDS011;37732;53.106;7.030;2023-04-03T14:17:12;4.68;;;1.30;;
51654;SDS011;37732;53.106;7.030;2023-04-03T14:19:43;2.45;;;1.33;;
51654;SDS011;37732;53.106;7.030;2023-04-03T14:22:17;4.10;;;2.17;;
51654;SDS011;37732;53.106;7.030;2023-04-03T14:24:50;2.60;;;1.20;;
51654;SDS011;37732;53.106;7.030;2023-04-03T14:27:19;2.85;;;1.40;;
51654;SDS011;37732;53.106;7.030;2023-04-03T14:29:49;3.65;;;1.35;;
51654;SDS011;37732;53.106;7.030;2023-04-03T14:32:17;2.95;;;1.38;;
51654;SDS011;37732;53.106;7.030;2023-04-03T14:34:44;2.85;;;1.20;;
51654;SDS011;37732;53.106;7.030;2023-04-03T14:37:12;2.42;;;1.20;;
51654;SDS011;37732;53.106;7.030;2023-04-03T14:39:40;2.35;;;1.13;;
51654;SDS011;37732;53.106;7.030;2023-04-03T14:42:10;4.32;;;1.58;;
51654;SDS011;37732;53.106;7.030;2023-04-03T14:44:42;4.30;;;1.20;;
51654;SDS011;37732;53.106;7.030;2023-04-03T14:47:15;8.88;;;1.92;;
51654;SDS011;37732;53.106;7.030;2023-04-03T14:49:43;2.65;;;1.40;;
51654;SDS011;37732;53.106;7.030;2023-04-03T14:52:23;3.35;;;1.40;;
51654;SDS011;37732;53.106;7.030;2023-04-03T14:54:56;3.90;;;1.50;;
51654;SDS011;37732;53.106;7.030;2023-04-03T14:57:26;2.92;;;1.48;;
51654;SDS011;37732;53.106;7.030;2023-04-03T14:59:53;2.15;;;1.48;;
51654;SDS011;37732;53.106;7.030;2023-04-03T15:05:02;3.42;;;1.20;;
51654;SDS011;37732;53.106;7.030;2023-04-03T15:07:30;3.83;;;1.48;;
51654;SDS011;37732;53.106;7.030;2023-04-03T15:10:02;3.92;;;1.52;;
51654;SDS011;37732;53.106;7.030;2023-04-03T15:12:34;2.55;;;1.27;;
51654;SDS011;37732;53.106;7.030;2023-04-03T15:15:00;2.47;;;1.40;;
51654;SDS011;37732;53.106;7.030;2023-04-03T15:17:26;3.05;;;1.42;;
51654;SDS011;37732;53.106;7.030;2023-04-03T15:19:52;4.65;;;1.45;;
51654;SDS011;37732;53.106;7.030;2023-04-03T15:22:18;2.33;;;1.20;;
51654;SDS011;37732;53.106;7.030;2023-04-03T15:24:45;3.72;;;1.30;;
51654;SDS011;37732;53.106;7.030;2023-04-03T15:27:11;3.88;;;1.35;;
51654;SDS011;37732;53.106;7.030;2023-04-03T15:29:38;3.53;;;1.40;;
51654;SDS011;37732;53.106;7.030;2023-04-03T15:32:06;4.70;;;1.55;;
51654;SDS011;37732;53.106;7.030;2023-04-03T15:34:33;2.50;;;1.50;;
51654;SDS011;37732;53.106;7.030;2023-04-03T15:36:59;3.45;;;1.48;;
51654;SDS011;37732;53.106;7.030;2023-04-03T15:39:26;2.08;;;1.15;;
51654;SDS011;37732;53.106;7.030;2023-04-03T15:41:51;4.35;;;1.48;;
51654;SDS011;37732;53.106;7.030;2023-04-03T15:44:19;2.58;;;1.30;;
51654;SDS011;37732;53.106;7.030;2023-04-03T15:46:46;3.65;;;1.85;;
51654;SDS011;37732;53.106;7.030;2023-04-03T15:49:13;4.95;;;1.63;;
51654;SDS011;37732;53.106;7.030;2023-04-03T15:51:40;2.72;;;1.15;;
51654;SDS011;37732;53.106;7.030;2023-04-03T15:54:06;7.00;;;1.88;;
51654;SDS011;37732;53.106;7.030;2023-04-03T15:56:32;5.35;;;2.03;;
51654;SDS011;37732;53.106;7.030;2023-04-03T15:58:57;4.53;;;1.70;;
51654;SDS011;37732;53.106;7.030;2023-04-03T16:01:23;3.17;;;1.50;;
51654;SDS011;37732;53.106;7.030;2023-04-03T16:03:49;3.78;;;1.80;;
51654;SDS011;37732;53.106;7.030;2023-04-03T16:06:16;4.15;;;1.60;;
51654;SDS011;37732;53.106;7.030;2023-04-03T16:08:44;3.28;;;1.40;;
51654;SDS011;37732;53.106;7.030;2023-04-03T16:11:11;3.20;;;1.88;;
51654;SDS011;37732;53.106;7.030;2023-04-03T16:13:37;4.18;;;1.67;;
51654;SDS011;37732;53.106;7.030;2023-04-03T16:16:03;5.88;;;2.33;;
51654;SDS011;37732;53.106;7.030;2023-04-03T16:18:30;4.10;;;1.65;;
51654;SDS011;37732;53.106;7.030;2023-04-03T16:20:56;2.72;;;1.55;;
51654;SDS011;37732;53.106;7.030;2023-04-03T16:23:22;3.17;;;1.65;;
51654;SDS011;37732;53.106;7.030;2023-04-03T16:25:48;3.38;;;1.42;;
51654;SDS011;37732;53.106;7.030;2023-04-03T16:28:15;3.83;;;1.70;;
51654;SDS011;37732;53.106;7.030;2023-04-03T16:30:42;3.85;;;1.50;;
51654;SDS011;37732;53.106;7.030;2023-04-03T16:33:10;3.53;;;1.70;;
51654;SDS011;37732;53.106;7.030;2023-04-03T16:35:37;3.63;;;1.70;;
51654;SDS011;37732;53.106;7.030;2023-04-03T16:38:03;3.75;;;1.50;;
51654;SDS011;37732;53.106;7.030;2023-04-03T16:40:29;4.15;;;1.42;;
51654;SDS011;37732;53.106;7.030;2023-04-03T16:42:55;3.50;;;1.33;;
51654;SDS011;37732;53.106;7.030;2023-04-03T16:45:21;2.20;;;1.35;;
51654;SDS011;37732;53.106;7.030;2023-04-03T16:47:46;3.00;;;1.40;;
51654;SDS011;37732;53.106;7.030;2023-04-03T16:50:12;1.90;;;1.20;;
51654;SDS011;37732;53.106;7.030;2023-04-03T16:52:38;2.22;;;1.20;;
51654;SDS011;37732;53.106;7.030;2023-04-03T16:55:04;2.45;;;1.25;;
51654;SDS011;37732;53.106;7.030;2023-04-03T16:57:30;4.15;;;1.40;;
51654;SDS011;37732;53.106;7.030;2023-04-03T16:59:55;4.70;;;1.20;;
51654;SDS011;37732;53.106;7.030;2023-04-03T17:02:22;3.85;;;1.27;;
51654;SDS011;37732;53.106;7.030;2023-04-03T17:04:52;2.58;;;1.20;;
51654;SDS011;37732;53.106;7.030;2023-04-03T17:07:19;2.55;;;1.20;;
51654;SDS011;37732;53.106;7.030;2023-04-03T17:09:46;1.63;;;0.88;;
51654;SDS011;37732;53.106;7.030;2023-04-03T17:12:12;2.25;;;1.13;;
51654;SDS011;37732;53.106;7.030;2023-04-03T17:14:38;2.67;;;1.10;;
51654;SDS011;37732;53.106;7.030;2023-04-03T17:17:04;2.53;;;1.20;;
51654;SDS011;37732;53.106;7.030;2023-04-03T17:19:30;3.78;;;1.38;;
51654;SDS011;37732;53.106;7.030;2023-04-03T17:21:56;1.92;;;1.02;;
51654;SDS011;37732;53.106;7.030;2023-04-03T17:24:22;1.65;;;0.98;;
51654;SDS011;37732;53.106;7.030;2023-04-03T17:26:48;2.80;;;1.08;;